createdAt,value
2023-01-12T00:01:29.425Z,23.37
2023-01-12T00:04:32.470Z,24.45
2023-01-12T00:07:35.373Z,24.85
2023-01-12T00:10:38.580Z,21.70
2023-01-12T00:13:41.312Z,22.80
2023-01-12T00:16:44.202Z,28.17
2023-01-12T00:19:47.458Z,25.37
2023-01-12T00:22:50.415Z,25.52
2023-01-12T00:25:54.298Z,28.40
2023-01-12T00:28:57.113Z,31.40
2023-01-12T00:32:01.010Z,28.20
2023-01-12T00:35:04.034Z,34.08
2023-01-12T00:38:06.733Z,33.03
2023-01-12T00:41:11.960Z,33.65
2023-01-12T00:44:33.191Z,31.50
2023-01-12T00:47:36.246Z,28.97
2023-01-12T00:50:39.084Z,27.65
2023-01-12T00:53:42.083Z,24.92
2023-01-12T00:56:44.745Z,27.45
2023-01-12T00:59:47.774Z,25.27
2023-01-12T01:02:50.428Z,27.37
2023-01-12T01:05:53.402Z,27.20
2023-01-12T01:08:56.378Z,26.73
2023-01-12T01:11:59.429Z,30.73
2023-01-12T01:15:02.391Z,34.67
2023-01-12T01:18:05.457Z,31.50
2023-01-12T01:21:09.388Z,35.67
2023-01-12T01:24:13.200Z,32.22
2023-01-12T01:27:16.371Z,36.72
2023-01-12T01:30:19.367Z,34.17
2023-01-12T01:33:22.130Z,42.60
2023-01-12T01:36:25.078Z,34.28
2023-01-12T01:39:27.882Z,36.42
2023-01-12T01:42:30.980Z,35.67
2023-01-12T01:45:33.608Z,34.83
2023-01-12T01:48:39.559Z,31.43
2023-01-12T01:51:42.434Z,39.50
2023-01-12T01:55:13.326Z,38.35
2023-01-12T01:58:20.392Z,30.83
2023-01-12T02:01:23.757Z,29.02
2023-01-12T02:04:26.899Z,34.00
2023-01-12T02:07:29.894Z,36.95
2023-01-12T02:10:33.017Z,33.72
2023-01-12T02:13:54.721Z,31.55
2023-01-12T02:17:32.478Z,33.13
2023-01-12T02:20:41.690Z,35.33
2023-01-12T02:24:15.173Z,30.37
2023-01-12T02:27:30.682Z,31.45
2023-01-12T02:31:27.531Z,32.30
2023-01-12T02:34:57.149Z,32.20
2023-01-12T02:38:05.746Z,30.40
2023-01-12T02:41:19.650Z,32.92
2023-01-12T02:44:35.283Z,30.27
2023-01-12T02:48:06.270Z,28.60
2023-01-12T02:51:13.766Z,26.95
2023-01-12T02:54:19.943Z,23.20
2023-01-12T02:57:23.876Z,26.30
2023-01-12T03:00:27.107Z,33.03
2023-01-12T03:03:29.802Z,30.77
2023-01-12T03:06:42.849Z,28.23
2023-01-12T03:09:49.642Z,26.80
2023-01-12T03:12:55.102Z,30.15
2023-01-12T03:15:57.996Z,25.23
2023-01-12T03:19:11.759Z,22.98
2023-01-12T03:22:15.368Z,19.10
2023-01-12T03:25:18.870Z,19.67
2023-01-12T03:28:25.209Z,17.45
2023-01-12T03:31:28.329Z,17.60
2023-01-12T03:34:32.363Z,19.90
2023-01-12T03:37:45.239Z,19.52
2023-01-12T03:40:51.609Z,24.20
2023-01-12T03:43:58.297Z,22.92
2023-01-12T03:47:04.416Z,21.30
2023-01-12T03:50:12.142Z,18.92
2023-01-12T03:53:17.202Z,25.58
2023-01-12T03:56:21.392Z,19.23
2023-01-12T03:59:24.412Z,18.98
2023-01-12T04:02:27.288Z,19.52
2023-01-12T04:05:30.651Z,25.75
2023-01-12T04:08:33.242Z,17.55
2023-01-12T04:11:54.633Z,19.00
2023-01-12T04:14:57.448Z,21.37
2023-01-12T04:18:00.237Z,18.73
2023-01-12T04:21:02.767Z,17.15
2023-01-12T04:24:06.055Z,15.30
2023-01-12T04:27:08.948Z,21.00
2023-01-12T04:30:13.625Z,21.90
2023-01-12T04:33:17.049Z,24.77
2023-01-12T04:36:20.041Z,21.67
2023-01-12T04:39:22.650Z,22.52
2023-01-12T04:42:44.068Z,21.80
2023-01-12T04:45:47.806Z,25.33
2023-01-12T04:48:50.842Z,30.80
2023-01-12T04:51:53.444Z,24.73
2023-01-12T04:54:56.951Z,25.73
2023-01-12T04:57:59.638Z,24.57
2023-01-12T05:01:12.887Z,29.08
2023-01-12T05:04:15.583Z,26.45
2023-01-12T05:07:18.679Z,30.75
2023-01-12T05:10:24.270Z,32.15
2023-01-12T05:13:31.180Z,30.17
2023-01-12T05:16:33.757Z,28.58
2023-01-12T05:19:36.811Z,29.40
2023-01-12T05:22:39.523Z,29.58
2023-01-12T05:25:42.949Z,29.60
2023-01-12T05:28:50.046Z,29.13
2023-01-12T05:31:53.275Z,24.77
2023-01-12T05:34:56.007Z,26.58
2023-01-12T05:37:58.884Z,32.45
2023-01-12T05:41:03.433Z,26.58
2023-01-12T05:44:06.498Z,28.57
2023-01-12T05:47:09.153Z,28.42
2023-01-12T05:50:12.206Z,28.40
2023-01-12T05:53:14.791Z,26.98
2023-01-12T05:56:20.636Z,21.73
2023-01-12T05:59:23.944Z,28.43
2023-01-12T06:02:27.156Z,27.90
2023-01-12T06:05:30.372Z,27.25
2023-01-12T06:08:33.154Z,29.25
2023-01-12T06:11:54.603Z,22.02
2023-01-12T06:14:57.130Z,21.07
2023-01-12T06:18:00.106Z,22.83
2023-01-12T06:21:03.838Z,20.88
2023-01-12T06:24:07.147Z,22.37
2023-01-12T06:27:09.713Z,21.17
2023-01-12T06:30:13.627Z,23.80
2023-01-12T06:33:16.154Z,37.25
2023-01-12T06:36:19.216Z,42.92
2023-01-12T06:39:21.722Z,32.78
2023-01-12T06:42:31.651Z,29.77
2023-01-12T06:45:34.179Z,31.27
2023-01-12T06:48:38.689Z,27.52
2023-01-12T06:51:42.750Z,24.52
2023-01-12T06:54:45.623Z,27.98
2023-01-12T06:57:48.136Z,26.27
2023-01-12T07:00:51.180Z,28.80
2023-01-12T07:03:54.267Z,29.73
2023-01-12T07:06:57.259Z,28.67
2023-01-12T07:10:00.120Z,34.85
2023-01-12T07:13:03.664Z,39.33
2023-01-12T07:16:07.073Z,40.57
2023-01-12T07:19:09.957Z,44.17
2023-01-12T07:22:12.738Z,37.80
2023-01-12T07:25:16.495Z,40.83
2023-01-12T07:28:19.333Z,47.92
2023-01-12T07:31:22.420Z,45.50
2023-01-12T07:34:25.121Z,47.33
2023-01-12T07:37:28.285Z,52.00
2023-01-12T07:40:31.043Z,43.03
2023-01-12T07:43:34.094Z,46.03
2023-01-12T07:46:36.786Z,48.80
2023-01-12T07:49:39.819Z,58.65
2023-01-12T07:52:42.434Z,66.55
2023-01-12T07:55:45.726Z,66.97
2023-01-12T07:58:49.594Z,71.93
2023-01-12T08:01:53.991Z,68.87
2023-01-12T08:04:56.902Z,61.78
2023-01-12T08:08:00.005Z,48.92
2023-01-12T08:11:06.770Z,42.72
2023-01-12T08:14:09.396Z,39.17
2023-01-12T08:17:19.401Z,37.77
2023-01-12T08:20:28.931Z,40.03
2023-01-12T08:23:35.404Z,38.67
2023-01-12T08:26:40.224Z,37.30
2023-01-12T08:29:49.443Z,38.42
2023-01-12T08:32:52.111Z,28.97
2023-01-12T08:35:55.132Z,24.20
2023-01-12T08:38:57.967Z,25.55
2023-01-12T08:42:01.664Z,25.62
2023-01-12T08:45:07.125Z,27.98
2023-01-12T08:48:10.328Z,30.03
2023-01-12T08:51:13.046Z,23.90
2023-01-12T08:54:17.658Z,27.65
2023-01-12T08:57:20.616Z,23.75
2023-01-12T09:00:23.696Z,27.55
2023-01-12T09:03:26.467Z,21.33
2023-01-12T09:06:37.242Z,20.70
2023-01-12T09:09:40.640Z,19.25
2023-01-12T09:12:43.668Z,20.35
2023-01-12T09:16:01.239Z,23.58
2023-01-12T09:19:10.486Z,25.27
2023-01-12T09:22:12.993Z,25.02
2023-01-12T09:25:16.464Z,22.85
2023-01-12T09:28:19.081Z,22.37
2023-01-12T09:31:23.443Z,22.55
2023-01-12T09:34:26.391Z,26.70
2023-01-12T09:37:29.294Z,25.10
2023-01-12T09:40:31.986Z,26.62
2023-01-12T09:43:54.462Z,21.73
2023-01-12T09:47:01.372Z,22.52
2023-01-12T09:50:12.393Z,23.70
2023-01-12T09:53:37.142Z,22.87
2023-01-12T09:56:51.792Z,24.12
2023-01-12T10:00:03.500Z,24.58
2023-01-12T10:03:24.813Z,24.85
2023-01-12T10:06:28.131Z,20.07
2023-01-12T10:09:30.936Z,19.80
2023-01-12T10:12:46.329Z,22.83
2023-01-12T10:15:58.121Z,22.25
2023-01-12T10:19:08.921Z,20.00
2023-01-12T10:22:38.637Z,21.77
2023-01-12T10:25:42.579Z,17.67
2023-01-12T10:28:46.793Z,19.87
2023-01-12T10:31:55.616Z,18.33
2023-01-12T10:34:58.096Z,23.10
2023-01-12T10:38:00.931Z,18.87
2023-01-12T10:41:35.626Z,19.83
2023-01-12T10:44:38.448Z,21.10
2023-01-12T10:47:41.963Z,22.67
2023-01-12T10:50:56.980Z,17.37
2023-01-12T10:54:18.024Z,24.17
2023-01-12T10:57:23.461Z,19.30
2023-01-12T11:00:27.799Z,23.38
2023-01-12T11:03:33.870Z,21.60
2023-01-12T11:06:37.080Z,18.95
2023-01-12T11:09:43.845Z,23.70
2023-01-12T11:12:55.295Z,22.87
2023-01-12T11:16:12.320Z,20.42
2023-01-12T11:19:21.617Z,17.83
2023-01-12T11:22:27.673Z,21.33
2023-01-12T11:25:40.979Z,22.33
2023-01-12T11:28:47.894Z,18.17
2023-01-12T11:31:55.121Z,22.27
2023-01-12T11:35:04.495Z,19.55
2023-01-12T11:38:41.129Z,23.38
2023-01-12T11:42:08.276Z,20.23
2023-01-12T11:45:19.723Z,18.50
2023-01-12T11:48:30.730Z,21.80
2023-01-12T11:51:33.554Z,16.48
2023-01-12T11:54:37.648Z,20.55
2023-01-12T11:58:01.095Z,20.87
2023-01-12T12:01:19.212Z,19.62
2023-01-12T12:04:41.901Z,19.58
2023-01-12T12:07:53.623Z,17.73
2023-01-12T12:10:58.945Z,23.70
2023-01-12T12:14:01.799Z,18.43
2023-01-12T12:17:43.105Z,23.08
2023-01-12T12:21:00.838Z,21.75
2023-01-12T12:24:23.463Z,20.98
2023-01-12T12:27:45.347Z,20.02
2023-01-12T12:31:00.690Z,16.93
2023-01-12T12:34:52.474Z,20.00
2023-01-12T12:38:08.449Z,17.35
2023-01-12T12:41:57.904Z,17.95
2023-01-12T12:45:16.824Z,22.27
2023-01-12T12:48:33.343Z,19.40
2023-01-12T12:51:37.909Z,22.10
2023-01-12T12:54:40.787Z,21.12
2023-01-12T12:58:05.735Z,21.15
2023-01-12T13:01:29.884Z,19.12
2023-01-12T13:04:46.289Z,19.90
2023-01-12T13:07:51.836Z,18.02
2023-01-12T13:10:57.894Z,18.23
2023-01-12T13:14:03.948Z,17.48
2023-01-12T13:17:19.006Z,18.87
2023-01-12T13:20:52.230Z,18.37
2023-01-12T13:24:16.798Z,19.73
2023-01-12T13:28:01.301Z,18.90
2023-01-12T13:31:30.453Z,19.37
2023-01-12T13:34:39.145Z,18.40
2023-01-12T13:37:51.071Z,17.33
2023-01-12T13:41:03.612Z,16.75
2023-01-12T13:44:10.124Z,17.95
2023-01-12T13:47:30.446Z,21.15
2023-01-12T13:50:35.676Z,18.25
2023-01-12T13:53:38.410Z,23.00
2023-01-12T13:56:42.140Z,17.98
2023-01-12T14:00:08.917Z,17.30
2023-01-12T14:03:27.277Z,14.90
2023-01-12T14:06:54.335Z,20.17
2023-01-12T14:10:05.349Z,14.93
2023-01-12T14:13:22.744Z,14.25
2023-01-12T14:17:05.650Z,19.65
2023-01-12T14:20:15.122Z,16.70
2023-01-12T14:23:20.471Z,14.93
2023-01-12T14:26:27.103Z,18.93
2023-01-12T14:29:29.638Z,16.70
2023-01-12T14:32:32.466Z,17.37
2023-01-12T14:35:34.945Z,14.25
2023-01-12T14:38:41.060Z,15.55
2023-01-12T14:42:05.660Z,16.40
2023-01-12T14:45:40.240Z,22.40
2023-01-12T14:48:44.068Z,14.80
2023-01-12T14:51:55.236Z,16.15
2023-01-12T14:55:14.136Z,14.73
2023-01-12T14:58:20.518Z,17.47
2023-01-12T15:01:38.290Z,19.12
2023-01-12T15:05:02.736Z,16.77
2023-01-12T15:08:08.374Z,17.62
2023-01-12T15:11:11.214Z,21.60
2023-01-12T15:14:22.366Z,16.43
2023-01-12T15:17:43.852Z,21.40
2023-01-12T15:21:06.213Z,25.15
2023-01-12T15:24:43.413Z,23.87
2023-01-12T15:27:48.842Z,21.80
2023-01-12T15:30:52.962Z,22.73
2023-01-12T15:33:56.431Z,19.87
2023-01-12T15:36:59.421Z,19.85
2023-01-12T15:40:02.034Z,17.83
2023-01-12T15:43:04.895Z,18.37
2023-01-12T15:46:16.881Z,26.23
2023-01-12T15:49:22.156Z,28.83
2023-01-12T15:52:25.895Z,25.70
2023-01-12T15:55:31.435Z,28.55
2023-01-12T15:58:34.092Z,22.48
2023-01-12T16:01:55.261Z,19.30
2023-01-12T16:04:58.780Z,15.43
2023-01-12T16:08:01.293Z,22.52
2023-01-12T16:11:13.519Z,20.37
2023-01-12T16:14:16.053Z,19.55
2023-01-12T16:17:19.003Z,23.90
2023-01-12T16:20:22.083Z,18.62
2023-01-12T16:23:25.215Z,18.00
2023-01-12T16:26:28.560Z,22.58
2023-01-12T16:29:31.976Z,24.70
2023-01-12T16:32:34.609Z,24.50
2023-01-12T16:35:37.413Z,29.40
2023-01-12T16:38:40.334Z,37.83
2023-01-12T16:41:43.233Z,32.58
2023-01-12T16:44:49.119Z,29.73
2023-01-12T16:47:56.663Z,34.10
2023-01-12T16:50:59.251Z,28.45
2023-01-12T16:54:04.621Z,33.78
2023-01-12T16:57:07.635Z,34.88
2023-01-12T17:00:10.967Z,35.65
2023-01-12T17:03:14.192Z,34.50
2023-01-12T17:06:20.214Z,35.63
2023-01-12T17:09:22.737Z,33.67
2023-01-12T17:12:25.809Z,38.97
2023-01-12T17:15:28.690Z,43.90
2023-01-12T17:18:31.953Z,38.67
2023-01-12T17:21:34.605Z,43.70
2023-01-12T17:24:40.302Z,43.78
2023-01-12T17:27:42.966Z,41.53
2023-01-12T17:30:46.915Z,49.03
2023-01-12T17:33:51.839Z,42.23
2023-01-12T17:36:55.544Z,42.00
2023-01-12T17:39:58.317Z,44.22
2023-01-12T17:43:08.582Z,38.00
2023-01-12T17:46:18.328Z,37.90
2023-01-12T17:49:21.336Z,37.90
2023-01-12T17:52:24.979Z,38.13
2023-01-12T17:55:29.582Z,38.22
2023-01-12T17:58:32.583Z,40.70
2023-01-12T18:01:36.848Z,40.88
2023-01-12T18:04:39.815Z,47.77
2023-01-12T18:07:42.391Z,44.42
2023-01-12T18:10:45.752Z,52.28
2023-01-12T18:13:48.251Z,40.95
2023-01-12T18:16:51.115Z,40.90
2023-01-12T18:19:53.701Z,33.87
2023-01-12T18:22:56.551Z,34.97
2023-01-12T18:26:04.494Z,35.53
2023-01-12T18:29:08.115Z,38.15
2023-01-12T18:32:11.126Z,38.20
2023-01-12T18:35:16.276Z,42.17
2023-01-12T18:38:19.067Z,42.22
2023-01-12T18:41:41.556Z,38.63
2023-01-12T18:44:44.415Z,39.92
2023-01-12T18:48:05.874Z,39.08
2023-01-12T18:51:26.858Z,41.87
2023-01-12T18:54:29.865Z,40.70
2023-01-12T18:57:33.268Z,43.40
2023-01-12T19:00:37.172Z,45.97
2023-01-12T19:03:41.651Z,44.88
2023-01-12T19:06:46.568Z,43.17
2023-01-12T19:09:49.137Z,40.30
2023-01-12T19:13:12.048Z,41.33
2023-01-12T19:16:30.133Z,40.80
2023-01-12T19:19:34.905Z,39.47
2023-01-12T19:22:55.961Z,38.97
2023-01-12T19:26:20.982Z,37.58
2023-01-12T19:29:23.852Z,39.20
2023-01-12T19:32:26.783Z,34.30
2023-01-12T19:35:29.745Z,34.05
2023-01-12T19:38:32.670Z,36.43
2023-01-12T19:41:54.431Z,33.90
2023-01-12T19:44:57.373Z,39.92
2023-01-12T19:47:59.940Z,39.13
2023-01-12T19:51:10.429Z,40.72
2023-01-12T19:54:13.502Z,40.17
2023-01-12T19:57:16.463Z,41.30
2023-01-12T20:00:20.369Z,38.33
2023-01-12T20:03:24.375Z,36.53
2023-01-12T20:06:27.167Z,33.55
2023-01-12T20:09:30.060Z,38.07
2023-01-12T20:12:32.740Z,39.53
2023-01-12T20:15:38.455Z,43.33
2023-01-12T20:18:43.534Z,42.45
2023-01-12T20:21:47.713Z,39.58
2023-01-12T20:24:50.284Z,40.57
2023-01-12T20:27:53.852Z,47.10
2023-01-12T20:31:00.928Z,47.72
2023-01-12T20:34:03.919Z,42.78
2023-01-12T20:37:06.583Z,58.70
2023-01-12T20:40:10.399Z,49.10
2023-01-12T20:43:13.519Z,50.63
2023-01-12T20:46:16.583Z,59.72
2023-01-12T20:49:19.386Z,77.30
2023-01-12T20:52:25.646Z,42.20
2023-01-12T20:55:28.894Z,51.27
2023-01-12T20:58:32.316Z,38.85
2023-01-12T21:01:35.233Z,36.53
2023-01-12T21:04:38.169Z,42.78
2023-01-12T21:07:40.669Z,44.63
2023-01-12T21:10:51.994Z,39.20
2023-01-12T21:13:56.304Z,44.05
2023-01-12T21:16:59.382Z,39.90
2023-01-12T21:20:01.945Z,46.17
2023-01-12T21:23:04.829Z,39.15
2023-01-12T21:26:08.013Z,36.13
2023-01-12T21:29:10.893Z,35.45
2023-01-12T21:32:13.907Z,37.20
2023-01-12T21:35:17.932Z,41.92
2023-01-12T21:38:20.530Z,30.25
2023-01-12T21:41:24.923Z,27.87
2023-01-12T21:44:27.754Z,28.95
2023-01-12T21:47:30.578Z,34.88
2023-01-12T21:50:34.127Z,38.38
2023-01-12T21:53:37.040Z,43.17
2023-01-12T21:56:39.586Z,45.00
2023-01-12T21:59:43.118Z,39.72
2023-01-12T22:02:45.818Z,46.13
2023-01-12T22:05:49.534Z,50.22
2023-01-12T22:08:52.155Z,45.38
2023-01-12T22:11:54.872Z,48.47
2023-01-12T22:14:57.429Z,40.90
2023-01-12T22:18:00.804Z,34.75
2023-01-12T22:21:05.477Z,37.95
2023-01-12T22:24:08.372Z,30.45
2023-01-12T22:27:10.927Z,32.77
2023-01-12T22:30:17.347Z,32.65
2023-01-12T22:33:20.564Z,31.95
2023-01-12T22:36:23.639Z,32.20
2023-01-12T22:39:27.677Z,32.03
2023-01-12T22:42:50.346Z,26.50
2023-01-12T22:45:55.999Z,29.37
2023-01-12T22:49:01.883Z,26.77
2023-01-12T22:52:04.936Z,35.58
2023-01-12T22:55:08.188Z,32.17
2023-01-12T22:58:10.893Z,31.10
2023-01-12T23:01:14.137Z,32.28
2023-01-12T23:04:16.675Z,31.52
2023-01-12T23:07:19.638Z,33.53
2023-01-12T23:10:25.232Z,30.40
2023-01-12T23:13:28.004Z,26.53
2023-01-12T23:16:30.445Z,28.95
2023-01-12T23:19:33.537Z,33.50
2023-01-12T23:22:36.387Z,29.65
2023-01-12T23:25:39.821Z,25.83
2023-01-12T23:28:47.977Z,29.87
2023-01-12T23:31:50.890Z,28.55
2023-01-12T23:34:53.443Z,27.23
2023-01-12T23:37:56.514Z,28.00
2023-01-12T23:40:59.554Z,25.67
2023-01-12T23:44:04.400Z,28.27
2023-01-12T23:47:07.733Z,24.45
2023-01-12T23:50:12.305Z,29.65
2023-01-12T23:53:15.602Z,32.00
2023-01-12T23:56:19.651Z,29.30
2023-01-12T23:59:22.261Z,31.23
